Bakaly, Russia
Current Conditions -  °F | °C
As of 9:30 PM on Tuesday 21 Oct 2014 (Local Time) from UWKE Reporting Station
Moderate Snow Moderate Snow  
Wind Chill: 17°   Ceiling: 700
Heat Index: 28°   Visibility: 1.1mi
Dew Point: 27°   Wind: 16mph
Humidity: 93%   Direction: 70°ENE
Pressure: 29.53"   Gusts: NA
Location:  55.18°N, 53.8°E
Report Text: UWKE 211630Z 07007MPS 1800 SN OVC007 M02/M03 Q1000 TEMPO 0500+SN RMK QFE733/0978 03491040
Loading
Personal Weather Stations






























Interactive Weather Map
Tropical Storm Tracking
New forecast layout! Learn more

10-Day Weather Forecast

Advertisements
Track Severe Weather on mobile